Time;durP1;ratioP1;P1;durP2;ratioP2;P2;SDS_P1;SDS_P2;PMS_P1;PMS_P2;Temp;Humidity;BMP_temperature;BMP_pressure;BME280_temperature;BME280_humidity;BME280_pressure;Samples;Min_cycle;Max_cycle;Signal;HPM_P1;HPM_P2
2021/06/04 00:03:21;;;;;;;7.93;4.90;;;16.20;99.90;;;17.13;58.06;94721.03;5119570;27;20540;-74
2021/06/04 00:05:52;;;;;;;5.80;4.83;;;16.20;99.90;;;17.10;58.06;94716.22;5087687;28;20199;-74
2021/06/04 00:08:19;;;;;;;5.63;4.63;;;16.20;99.90;;;17.02;58.05;94706.97;5103766;28;20206;-74
2021/06/04 00:11:03;;;;;;;8.33;4.80;;;16.20;99.90;;;16.98;58.29;94715.84;5103679;28;20684;-74
2021/06/04 00:13:40;;;;;;;6.60;4.97;;;16.20;99.90;;;17.02;58.39;94712.31;5085695;28;20199;-74
2021/06/04 00:16:19;;;;;;;5.67;4.80;;;16.20;99.90;;;16.95;58.18;94706.50;5101453;28;20197;-73
2021/06/04 00:18:47;;;;;;;6.77;4.87;;;16.10;99.90;;;16.88;58.36;94703.34;5106324;28;20519;-74
2021/06/04 00:21:25;;;;;;;5.80;4.73;;;16.10;99.90;;;16.80;58.50;94706.63;5087917;28;20289;-75
2021/06/04 00:23:53;;;;;;;5.23;4.70;;;16.10;99.90;;;16.67;58.67;94707.31;5103501;28;20211;-75
2021/06/04 00:26:23;;;;;;;6.10;5.07;;;15.90;99.90;;;16.58;58.70;94700.97;5086571;28;20237;-75
2021/06/04 00:28:49;;;;;;;5.73;4.67;;;15.80;99.90;;;16.51;58.65;94701.28;5101432;28;20703;-74
2021/06/04 00:31:17;;;;;;;5.87;4.73;;;15.80;99.90;;;16.47;58.68;94700.22;5103104;28;20203;-74
2021/06/04 00:33:43;;;;;;;6.73;4.70;;;15.70;99.90;;;16.46;58.89;94697.81;5087034;28;20251;-75
2021/06/04 00:36:11;;;;;;;6.73;4.33;;;15.70;99.90;;;16.38;58.96;94700.00;5102124;28;20300;-75
2021/06/04 00:38:40;;;;;;;4.70;4.07;;;15.60;99.90;;;16.34;58.98;94703.56;5102871;28;20286;-73
2021/06/04 00:41:32;;;;;;;4.97;4.47;;;15.60;99.90;;;16.24;59.03;94706.31;5101366;28;20215;-73
2021/06/04 00:43:58;;;;;;;8.00;4.73;;;15.50;99.90;;;16.13;59.23;94702.09;5101854;28;20194;-72
2021/06/04 00:46:27;;;;;;;6.37;4.53;;;15.40;99.90;;;16.00;59.26;94708.88;5098917;28;20242;-75
2021/06/04 00:48:54;;;;;;;5.07;4.57;;;15.30;99.90;;;15.90;59.20;94701.75;5084965;28;20256;-75
2021/06/04 00:51:34;;;;;;;6.70;4.80;;;15.20;99.90;;;15.83;59.45;94708.47;5101540;28;20216;-75
2021/06/04 00:54:02;;;;;;;6.67;5.07;;;15.10;99.90;;;15.72;59.51;94712.25;5104099;28;20190;-75
2021/06/04 00:56:30;;;;;;;5.07;4.63;;;15.10;99.90;;;15.69;59.41;94708.28;5101901;28;20186;-72
2021/06/04 00:58:56;;;;;;;5.20;4.70;;;15.00;99.90;;;15.67;59.36;94710.44;5102971;28;20198;-75
2021/06/04 01:01:29;;;;;;;5.27;4.60;;;15.00;99.90;;;15.63;59.63;94711.25;5084625;28;20316;-74
2021/06/04 01:04:17;;;;;;;6.80;4.70;;;15.00;99.90;;;15.55;59.73;94709.13;5102474;28;20232;-74
2021/06/04 01:07:06;;;;;;;5.23;4.83;;;14.90;99.90;;;15.53;59.91;94716.66;5102637;28;20183;-73
2021/06/04 01:10:12;;;;;;;6.83;4.97;;;14.90;99.90;;;15.49;59.86;94708.38;5113689;28;20729;-73
2021/06/04 01:12:53;;;;;;;6.43;4.60;;;14.90;99.90;;;15.45;60.03;94725.19;5099634;28;20215;-75
2021/06/04 01:15:34;;;;;;;5.60;4.83;;;15.60;99.90;;;15.46;60.03;94722.25;5092105;28;20205;-75
2021/06/04 01:18:14;;;;;;;4.87;4.47;;;15.00;99.90;;;15.44;60.21;94724.41;5088078;28;20296;-75
2021/06/04 01:20:50;;;;;;;5.97;4.77;;;14.80;99.90;;;15.34;60.43;94725.22;5094614;28;20738;-75
2021/06/04 01:23:30;;;;;;;5.90;4.57;;;14.70;99.90;;;15.39;60.52;94727.91;5086194;28;20189;-75
2021/06/04 01:26:03;;;;;;;5.53;4.50;;;14.70;99.90;;;15.38;60.46;94723.63;5090105;28;20186;-74
2021/06/04 01:28:45;;;;;;;5.13;4.63;;;14.80;99.90;;;15.37;60.50;94729.25;5070060;28;20190;-75
2021/06/04 01:31:31;;;;;;;6.23;4.27;;;14.70;99.90;;;15.43;60.47;94728.16;5066346;28;20775;-73
2021/06/04 01:34:29;;;;;;;4.63;4.23;;;14.70;99.90;;;15.43;60.82;94727.34;5066476;28;20216;-73
2021/06/04 01:37:07;;;;;;;6.27;4.37;;;14.70;99.90;;;15.38;60.92;94736.97;5089469;28;20872;-75
2021/06/04 01:39:41;;;;;;;4.57;4.10;;;14.60;99.90;;;15.29;60.53;94729.81;5082921;28;20186;-75
2021/06/04 01:42:11;;;;;;;5.67;3.87;;;14.60;99.90;;;15.19;60.68;94727.97;5071942;28;20213;-75
2021/06/04 01:44:40;;;;;;;4.73;4.13;;;14.50;99.90;;;15.11;61.16;94733.84;5087467;28;20186;-76
2021/06/04 01:47:12;;;;;;;4.40;4.00;;;14.50;99.90;;;15.10;60.98;94732.28;5085622;28;20183;-74
2021/06/04 01:49:42;;;;;;;5.10;4.47;;;14.40;99.90;;;15.09;61.26;94724.53;5087345;28;20500;-75
2021/06/04 01:52:20;;;;;;;4.90;4.43;;;14.50;99.90;;;15.08;61.30;94725.59;5087952;28;20278;-76
2021/06/04 01:55:02;;;;;;;4.80;4.40;;;14.40;99.90;;;15.05;61.19;94718.94;5069664;28;20183;-74
2021/06/04 01:57:38;;;;;;;4.83;4.37;;;14.40;99.90;;;15.01;61.29;94727.78;5086916;28;20217;-74
2021/06/04 02:00:31;;;;;;;5.37;4.37;;;14.30;99.90;;;14.99;61.49;94721.88;5081846;28;20197;-75
2021/06/04 02:02:57;;;;;;;5.10;4.37;;;14.30;99.90;;;14.89;61.69;94718.19;5102196;28;20206;-76
2021/06/04 02:05:34;;;;;;;5.03;4.57;;;14.20;99.90;;;14.85;61.83;94721.66;5084147;28;20202;-75
2021/06/04 02:08:01;;;;;;;5.70;4.40;;;14.20;99.90;;;14.85;62.04;94724.31;5088769;28;20667;-75
2021/06/04 02:10:40;;;;;;;5.63;4.60;;;14.20;99.90;;;14.84;61.74;94734.19;5085142;28;20182;-75
2021/06/04 02:13:09;;;;;;;5.40;4.90;;;14.10;99.90;;;14.85;61.96;94735.00;5058070;28;20569;-75
2021/06/04 02:15:47;;;;;;;6.03;5.43;;;14.10;99.90;;;14.87;61.98;94730.22;5086721;28;20540;-76
2021/06/04 02:18:47;;;;;;;5.70;5.20;;;14.10;99.90;;;14.87;62.16;94727.53;5087243;28;20329;-75
2021/06/04 02:21:24;;;;;;;6.23;5.60;;;14.00;99.90;;;14.89;62.41;94733.41;5079527;28;20245;-75
2021/06/04 02:24:19;;;;;;;5.70;5.20;;;14.10;99.90;;;14.86;62.37;94725.94;5069004;28;20198;-74
2021/06/04 02:27:24;;;;;;;5.90;4.60;;;14.10;99.90;;;14.82;62.30;94736.34;5086579;28;20182;-74
2021/06/04 02:30:12;;;;;;;6.20;5.10;;;14.00;99.90;;;14.82;62.60;94723.00;5085764;28;20205;-74
2021/06/04 02:32:54;;;;;;;7.10;4.67;;;14.10;99.90;;;14.79;62.72;94725.41;5086390;28;20549;-75
2021/06/04 02:35:33;;;;;;;5.27;4.80;;;14.10;99.90;;;14.76;62.65;94733.97;5073170;28;20222;-76
2021/06/04 02:38:31;;;;;;;7.30;5.17;;;14.10;99.90;;;14.76;62.81;94732.09;5087166;28;20712;-75
2021/06/04 02:41:32;;;;;;;4.95;4.50;;;14.10;99.90;;;14.78;62.64;94739.81;5081937;28;20653;-73
2021/06/04 02:44:15;;;;;;;8.73;4.80;;;14.00;99.90;;;14.63;63.07;94729.19;5066716;28;20202;-74
2021/06/04 02:46:52;;;;;;;6.33;4.87;;;13.90;99.90;;;14.55;62.73;94743.03;5083318;28;20194;-74
2021/06/04 02:49:21;;;;;;;5.57;4.90;;;13.80;99.90;;;14.44;63.00;94733.47;5087223;28;20664;-74
2021/06/04 02:51:55;;;;;;;5.53;4.90;;;13.80;99.90;;;14.38;63.05;94736.13;5086057;28;20594;-75
2021/06/04 02:54:32;;;;;;;5.40;4.67;;;13.70;99.90;;;14.51;62.99;94747.31;5087782;28;20600;-73
2021/06/04 02:57:07;;;;;;;5.00;4.50;;;13.80;99.90;;;14.50;63.01;94735.06;5065264;28;20190;-74
2021/06/04 02:59:44;;;;;;;5.37;4.50;;;13.80;99.90;;;14.42;63.30;94743.59;5085116;28;20197;-75
2021/06/04 03:02:25;;;;;;;5.20;4.40;;;13.80;99.90;;;14.45;63.24;94749.19;5066274;28;20205;-75
2021/06/04 03:04:57;;;;;;;5.43;4.90;;;13.80;99.90;;;14.43;63.42;94748.66;5059553;28;20191;-73
2021/06/04 03:07:28;;;;;;;6.80;4.60;;;13.70;99.90;;;14.40;63.39;94751.06;5082243;28;20281;-75
2021/06/04 03:09:58;;;;;;;5.30;4.80;;;13.70;99.90;;;14.37;63.54;94750.50;5070122;28;20966;-75
2021/06/04 03:12:40;;;;;;;4.93;4.50;;;13.70;99.90;;;14.36;63.50;94748.94;5069639;28;20205;-74
2021/06/04 03:15:30;;;;;;;6.20;4.43;;;13.60;99.90;;;14.37;63.58;94757.72;5085989;28;20221;-74
2021/06/04 03:17:59;;;;;;;4.90;4.40;;;13.60;99.90;;;14.31;63.61;94750.75;5083148;28;20201;-74
2021/06/04 03:20:34;;;;;;;9.37;4.50;;;13.50;99.90;;;14.29;63.87;94758.22;5084568;28;20194;-74
2021/06/04 03:23:00;;;;;;;6.73;4.37;;;13.50;99.90;;;14.27;63.73;94747.00;5084660;28;20219;-73
2021/06/04 03:25:40;;;;;;;7.27;4.50;;;13.50;99.90;;;14.32;64.07;94766.50;5069356;28;20190;-74
2021/06/04 03:28:10;;;;;;;6.10;4.30;;;13.60;99.90;;;14.20;64.08;94765.16;5085535;28;20193;-74
2021/06/04 03:30:41;;;;;;;5.27;4.50;;;14.00;99.90;;;14.20;63.78;94765.94;5086340;28;20186;-73
2021/06/04 03:33:12;;;;;;;5.30;4.30;;;13.40;99.90;;;14.21;64.37;94766.75;5084134;28;20202;-75
2021/06/04 03:35:42;;;;;;;6.43;4.73;;;13.80;99.90;;;14.20;64.58;94770.50;5084047;28;20733;-73
2021/06/04 03:38:10;;;;;;;6.63;5.47;;;13.40;99.90;;;14.18;64.56;94768.06;5066953;28;20205;-74
2021/06/04 03:40:39;;;;;;;5.50;4.97;;;13.40;99.90;;;14.20;64.53;94776.59;5068734;28;20251;-75
2021/06/04 03:43:10;;;;;;;5.50;4.93;;;13.40;99.90;;;14.27;64.25;94779.00;5084801;28;20331;-74
2021/06/04 03:45:40;;;;;;;5.87;5.00;;;13.40;99.90;;;14.31;64.50;94774.75;5070653;28;20203;-75
2021/06/04 03:48:10;;;;;;;5.30;4.80;;;13.50;99.90;;;14.34;64.68;94776.91;5067462;28;20232;-72
2021/06/04 03:50:39;;;;;;;8.70;4.70;;;13.50;99.90;;;14.46;64.75;94784.66;5082433;28;20190;-75
2021/06/04 03:53:09;;;;;;;6.27;5.00;;;13.60;99.90;;;14.54;64.97;94787.59;5087414;28;20194;-74
2021/06/04 03:55:40;;;;;;;4.93;4.13;;;13.70;99.90;;;14.67;64.73;94786.28;5084768;28;20261;-73
2021/06/04 03:58:06;;;;;;;5.20;4.70;;;13.80;99.90;;;14.83;64.74;94777.97;5086277;28;20593;-73
2021/06/04 04:00:42;;;;;;;5.60;4.77;;;13.90;99.90;;;14.99;65.04;94789.44;5083773;28;20205;-74
2021/06/04 04:03:10;;;;;;;5.93;4.57;;;14.10;99.90;;;15.13;64.94;94779.00;5067857;28;20272;-74
2021/06/04 04:05:36;;;;;;;4.87;4.47;;;14.20;99.90;;;15.27;65.03;94780.03;5082832;28;20217;-74
2021/06/04 04:08:04;;;;;;;5.23;4.77;;;14.40;99.90;;;15.45;64.95;94787.44;5080195;28;20763;-74
2021/06/04 04:10:30;;;;;;;6.83;4.33;;;14.50;99.90;;;15.60;65.22;94786.63;5068210;28;20289;-74
2021/06/04 04:12:57;;;;;;;6.40;4.47;;;14.70;99.90;;;15.75;65.29;94794.56;5069715;28;20264;-75
2021/06/04 04:15:26;;;;;;;4.80;4.30;;;14.90;99.90;;;15.89;65.04;94790.22;5067665;28;20218;-74
2021/06/04 04:17:58;;;;;;;4.13;3.73;;;15.00;99.90;;;16.05;65.19;94794.41;5068185;28;20221;-73
2021/06/04 04:20:35;;;;;;;5.40;4.70;;;15.10;99.90;;;16.19;65.27;94800.75;5084166;28;20579;-74
2021/06/04 04:23:03;;;;;;;6.70;4.47;;;15.30;99.90;;;16.33;65.28;94792.91;5085928;28;20228;-73
2021/06/04 04:25:36;;;;;;;4.50;3.93;;;15.40;99.90;;;16.47;65.82;94793.88;5082624;28;20868;-75
2021/06/04 04:28:07;;;;;;;4.43;3.90;;;15.60;99.90;;;16.58;65.71;94791.97;5068135;28;20200;-74
2021/06/04 04:30:34;;;;;;;5.90;4.13;;;15.70;99.90;;;16.72;65.54;94800.97;5077779;28;20862;-75
2021/06/04 04:33:01;;;;;;;4.73;3.73;;;15.90;99.90;;;16.77;65.57;94790.19;5083050;28;20199;-75
2021/06/04 04:35:31;;;;;;;7.90;4.37;;;16.00;99.90;;;16.86;65.78;94802.69;5060975;28;20217;-75
2021/06/04 04:37:57;;;;;;;4.93;3.60;;;16.00;99.90;;;16.96;65.54;94801.00;5097584;28;20194;-76
2021/06/04 04:40:33;;;;;;;4.77;4.00;;;16.10;99.90;;;17.08;65.58;94804.94;5080429;28;20195;-76
2021/06/04 04:43:01;;;;;;;5.10;4.10;;;16.30;99.90;;;17.18;65.67;94801.34;5063579;28;20230;-75
2021/06/04 04:45:31;;;;;;;6.00;4.00;;;16.40;99.90;;;17.24;65.51;94798.34;5076431;28;20195;-73
2021/06/04 04:47:59;;;;;;;4.77;4.00;;;16.50;99.90;;;17.34;65.70;94802.78;5099568;28;20207;-74
2021/06/04 04:50:26;;;;;;;4.20;3.63;;;16.60;99.90;;;17.39;65.55;94795.47;5084398;28;20212;-74
2021/06/04 04:52:55;;;;;;;4.30;3.87;;;16.70;99.90;;;17.39;65.53;94808.88;5068214;28;20220;-76
2021/06/04 04:55:25;;;;;;;5.10;3.63;;;16.80;99.90;;;17.51;65.61;94816.53;5080839;28;20197;-74
2021/06/04 04:57:56;;;;;;;4.00;3.60;;;16.80;99.90;;;17.63;65.44;94816.97;5069102;28;20750;-74
2021/06/04 05:00:26;;;;;;;3.83;3.43;;;17.00;99.90;;;17.70;65.77;94813.94;5067619;28;20190;-73
2021/06/04 05:02:57;;;;;;;4.47;3.33;;;17.00;99.90;;;17.80;65.67;94809.25;5087292;28;20228;-74
2021/06/04 05:05:33;;;;;;;4.53;3.73;;;17.10;99.90;;;17.88;65.74;94813.19;5070778;28;20202;-73
2021/06/04 05:07:59;;;;;;;4.37;3.33;;;17.20;99.90;;;18.00;65.55;94812.78;5084903;28;20275;-71
2021/06/04 05:10:28;;;;;;;4.70;3.60;;;17.40;99.90;;;18.08;65.72;94817.50;5086095;28;20274;-73
2021/06/04 05:12:54;;;;;;;5.07;3.57;;;17.50;99.90;;;18.23;65.71;94804.66;5081486;28;20301;-73
2021/06/04 05:15:29;;;;;;;6.63;3.50;;;17.60;99.90;;;18.43;65.73;94815.13;5071863;28;20201;-73
2021/06/04 05:17:58;;;;;;;3.40;3.10;;;17.80;99.90;;;18.60;65.44;94811.94;5072150;28;20219;-72
2021/06/04 05:20:27;;;;;;;5.20;3.33;;;17.90;99.90;;;18.77;65.62;94816.78;5084211;28;20676;-72
2021/06/04 05:22:57;;;;;;;4.43;3.27;;;18.10;99.90;;;18.91;65.80;94805.00;5081990;28;20205;-74
2021/06/04 05:25:39;;;;;;;4.77;3.10;;;18.30;99.90;;;19.10;65.58;94818.41;5068157;28;20577;-73
2021/06/04 05:28:10;;;;;;;3.37;3.07;;;18.50;99.90;;;19.24;65.55;94819.22;5067343;28;20217;-72
2021/06/04 05:30:41;;;;;;;4.30;3.20;;;18.70;99.90;;;19.49;65.70;94822.59;5083093;28;20183;-73
2021/06/04 05:33:17;;;;;;;4.80;3.23;;;18.90;99.90;;;19.73;65.84;94821.31;5083269;28;20346;-74
2021/06/04 05:35:47;;;;;;;3.53;3.23;;;19.10;99.90;;;19.73;65.65;94815.13;5085596;28;20707;-72
2021/06/04 05:38:16;;;;;;;3.43;2.90;;;19.20;99.90;;;19.94;65.47;94822.50;5068217;28;20362;-72
2021/06/04 05:40:52;;;;;;;4.00;2.90;;;19.40;99.90;;;20.06;65.92;94818.50;5065925;28;20212;-73
2021/06/04 05:43:31;;;;;;;4.90;3.20;;;19.90;99.90;;;20.34;65.44;94837.06;5083615;28;20201;-72
2021/06/04 05:46:01;;;;;;;5.60;3.27;;;20.10;99.90;;;20.50;65.33;94815.16;5083900;28;20648;-73
2021/06/04 05:48:27;;;;;;;6.60;3.10;;;19.70;99.90;;;20.54;65.38;94825.03;5084532;28;20274;-74
2021/06/04 05:51:01;;;;;;;2.83;2.63;;;20.10;99.90;;;20.69;65.42;94827.38;5085309;28;20553;-71
2021/06/04 05:53:30;;;;;;;4.63;3.10;;;20.30;99.90;;;20.92;65.25;94839.75;5082151;28;20220;-72
2021/06/04 05:55:59;;;;;;;4.37;2.97;;;20.50;99.90;;;21.27;64.82;94837.34;5083983;28;20194;-75
2021/06/04 05:58:28;;;;;;;5.67;2.80;;;20.70;99.90;;;21.45;65.03;94834.41;5069052;28;20187;-72
2021/06/04 06:00:57;;;;;;;5.27;3.13;;;20.90;99.90;;;21.53;64.97;94834.78;5085226;28;20262;-71
2021/06/04 06:03:30;;;;;;;3.73;2.80;;;21.00;99.90;;;21.66;65.04;94839.28;5096362;28;20206;-73
2021/06/04 06:05:57;;;;;;;3.03;2.73;;;21.20;99.90;;;21.91;64.90;94835.94;5068162;28;20201;-74
2021/06/04 06:08:24;;;;;;;3.43;2.67;;;21.40;99.90;;;22.28;64.80;94845.44;5086995;28;20873;-72
2021/06/04 06:10:50;;;;;;;2.70;2.33;;;21.70;99.90;;;22.70;64.87;94854.72;5068528;28;20221;-72
2021/06/04 06:13:17;;;;;;;3.10;2.80;;;22.10;99.90;;;23.10;64.32;94869.69;5082180;28;20290;-74
2021/06/04 06:15:45;;;;;;;2.93;2.30;;;22.60;99.90;;;23.67;64.41;94859.44;5082279;28;20243;-75
2021/06/04 06:18:13;;;;;;;4.00;2.40;;;23.10;99.90;;;24.24;64.26;94859.13;5066755;28;20228;-75
2021/06/04 06:20:44;;;;;;;3.20;2.00;;;23.80;99.90;;;24.72;64.11;94859.44;5068305;28;20186;-74
2021/06/04 06:23:25;;;;;;;3.73;2.10;;;24.30;99.90;;;24.82;63.92;94842.00;5085579;28;20214;-75
2021/06/04 06:25:58;;;;;;;3.30;2.00;;;24.50;99.90;;;24.82;63.62;94869.09;5084928;28;20755;-74
2021/06/04 06:28:29;;;;;;;3.17;1.90;;;24.50;99.90;;;25.00;63.42;94859.75;5084498;28;20282;-75
2021/06/04 06:30:58;;;;;;;2.67;2.20;;;24.70;99.90;;;24.88;62.89;94846.16;5067189;28;20188;-74
2021/06/04 06:33:27;;;;;;;2.83;2.20;;;24.70;99.90;;;25.01;62.77;94859.41;5085097;28;20268;-74
2021/06/04 06:36:02;;;;;;;2.83;2.10;;;24.90;99.90;;;25.08;62.99;94841.84;5066028;28;20215;-71
2021/06/04 06:38:30;;;;;;;2.70;2.00;;;25.00;99.90;;;24.93;62.53;94848.63;5085266;28;20246;-72
2021/06/04 06:40:59;;;;;;;4.50;2.23;;;24.90;99.90;;;25.41;62.16;94862.44;5064206;28;20329;-72
2021/06/04 06:43:33;;;;;;;6.00;2.43;;;25.30;99.90;;;25.82;62.09;94874.34;5067497;28;20215;-72
2021/06/04 06:46:03;;;;;;;3.77;2.07;;;25.50;99.90;;;26.06;61.80;94865.44;5085732;28;20203;-72
2021/06/04 06:48:29;;;;;;;4.67;2.37;;;25.90;99.90;;;25.93;61.70;94851.03;5064964;28;20194;-75
2021/06/04 06:50:56;;;;;;;3.13;1.97;;;25.90;99.90;;;25.97;61.41;94869.06;5082739;28;20193;-74
2021/06/04 06:53:25;;;;;;;7.77;2.50;;;26.00;99.90;;;25.99;61.26;94864.06;5051299;28;20197;-75
2021/06/04 06:55:54;;;;;;;2.57;2.33;;;26.00;99.90;;;26.03;60.97;94873.13;5065229;28;20195;-75
2021/06/04 06:58:23;;;;;;;2.40;2.10;;;26.10;99.90;;;25.88;60.61;94854.78;5078393;28;20213;-75
2021/06/04 07:00:55;;;;;;;3.53;2.30;;;26.00;99.90;;;25.79;60.59;94875.00;5070263;28;20186;-75
2021/06/04 07:03:30;;;;;;;2.83;2.30;;;25.90;99.90;;;25.40;60.25;94874.41;5083317;28;20250;-75
2021/06/04 07:06:00;;;;;;;7.90;2.90;;;25.60;99.90;;;25.38;60.11;94879.38;5083116;28;20190;-74
2021/06/04 07:08:27;;;;;;;2.50;2.30;;;25.40;99.90;;;25.22;59.93;94883.81;5080965;28;20187;-72
2021/06/04 07:10:59;;;;;;;2.97;2.33;;;25.30;99.90;;;25.22;59.93;94872.97;5078415;28;20246;-74
2021/06/04 07:13:28;;;;;;;4.30;2.30;;;25.30;99.90;;;25.10;59.54;94889.22;5082380;28;21487;-75
2021/06/04 07:16:10;;;;;;;4.67;2.50;;;25.10;99.90;;;25.10;59.74;94897.34;5087031;28;20193;-74
2021/06/04 07:18:41;;;;;;;4.43;2.50;;;25.10;99.90;;;25.08;59.53;94896.09;5080558;28;20264;-74
2021/06/04 07:21:13;;;;;;;3.27;2.20;;;25.10;99.90;;;25.06;59.50;94901.03;5065741;28;20222;-74
2021/06/04 07:23:42;;;;;;;3.97;2.30;;;25.00;99.90;;;25.21;59.29;94901.25;5063677;28;20186;-72
2021/06/04 07:26:11;;;;;;;2.93;2.30;;;25.00;99.90;;;24.98;59.48;94894.56;5086610;28;20680;-75
2021/06/04 07:28:38;;;;;;;2.73;2.37;;;24.80;99.90;;;25.05;58.96;94913.03;5085311;28;20194;-74
2021/06/04 07:31:10;;;;;;;3.33;2.47;;;24.70;99.90;;;24.87;59.05;94904.22;5086160;28;20251;-74
2021/06/04 07:33:47;;;;;;;4.60;2.77;;;24.60;99.90;;;24.92;58.54;94937.38;5083736;28;20601;-74
2021/06/04 07:36:22;;;;;;;4.60;2.70;;;24.60;99.90;;;25.04;58.49;94928.53;5082438;28;20213;-73
2021/06/04 07:38:51;;;;;;;4.33;2.70;;;24.80;99.90;;;25.08;58.43;94923.22;5077932;28;20198;-74
2021/06/04 07:41:20;;;;;;;4.23;2.83;;;24.80;99.90;;;25.26;58.31;94911.91;5065034;28;20317;-72
2021/06/04 07:43:47;;;;;;;2.80;2.60;;;25.00;99.90;;;25.71;58.05;94941.88;5083602;28;20205;-73
2021/06/04 07:46:17;;;;;;;4.83;2.60;;;25.40;99.90;;;25.85;57.94;94919.88;5085669;28;20234;-71
2021/06/04 07:48:48;;;;;;;3.40;3.10;;;25.50;99.90;;;25.52;57.83;94943.50;5061906;28;20281;-72
2021/06/04 07:51:21;;;;;;;4.40;2.87;;;25.30;99.90;;;24.99;57.70;94915.13;5067238;28;20187;-71
2021/06/04 07:53:47;;;;;;;4.37;2.70;;;24.90;99.90;;;24.85;57.75;94922.72;5063520;28;20198;-73
2021/06/04 07:56:16;;;;;;;4.27;3.00;;;24.80;99.90;;;24.76;57.79;94924.69;5082624;28;20243;-72
2021/06/04 07:58:46;;;;;;;3.23;2.93;;;24.60;99.90;;;24.65;57.58;94924.25;5077588;28;20199;-74
2021/06/04 08:01:13;;;;;;;3.23;2.87;;;24.50;99.90;;;24.80;57.41;94945.41;5080875;28;20194;-71
2021/06/04 08:03:41;;;;;;;6.50;3.20;;;24.50;99.90;;;24.79;57.66;94932.16;5081982;28;20840;-73
2021/06/04 08:06:08;;;;;;;3.53;2.90;;;24.50;99.90;;;24.78;57.22;94928.63;5066565;28;20194;-74
2021/06/04 08:08:38;;;;;;;3.30;3.00;;;24.50;99.90;;;24.82;57.27;94940.47;5083570;28;20190;-72
2021/06/04 08:11:08;;;;;;;4.17;2.77;;;24.50;99.90;;;24.82;57.00;94942.34;5080449;28;22076;-73
2021/06/04 08:13:35;;;;;;;4.73;2.90;;;24.50;99.90;;;25.01;57.25;94915.63;5084970;28;20694;-73
2021/06/04 08:16:11;;;;;;;3.93;3.50;;;24.70;99.90;;;24.88;56.82;94935.66;5083240;28;20193;-73
2021/06/04 08:18:38;;;;;;;3.57;2.97;;;24.60;99.90;;;24.76;57.09;94922.75;5086897;28;20704;-73
2021/06/04 08:21:23;;;;;;;6.00;3.13;;;24.40;99.90;;;24.70;56.88;94936.84;5066362;28;20281;-74
2021/06/04 08:23:54;;;;;;;4.13;2.63;;;24.30;99.90;;;24.34;56.85;94913.72;5066806;28;20205;-73
2021/06/04 08:26:25;;;;;;;4.30;3.00;;;24.10;99.90;;;24.44;56.90;94958.66;5084769;28;20571;-73
2021/06/04 08:28:52;;;;;;;7.20;2.37;;;24.00;99.90;;;24.39;56.44;94942.56;5088483;28;20191;-71
2021/06/04 08:31:22;;;;;;;3.43;2.87;;;24.10;99.90;;;24.76;56.55;94985.13;5087568;28;20205;-72
2021/06/04 08:33:49;;;;;;;5.17;2.67;;;24.30;99.90;;;25.36;56.43;94971.22;5087582;28;20179;-72
2021/06/04 08:36:33;;;;;;;3.00;2.60;;;24.80;99.90;;;26.19;56.69;94995.59;5084916;28;20215;-72
2021/06/04 08:39:09;;;;;;;3.13;2.40;;;25.50;99.90;;;27.01;56.25;94996.41;5088416;28;20263;-73
2021/06/04 08:42:06;;;;;;;3.90;2.40;;;26.40;99.90;;;28.17;55.70;94988.19;5083957;28;20684;-72
2021/06/04 08:45:09;;;;;;;2.60;1.97;;;27.70;99.90;;;28.83;55.25;94998.50;5090559;28;20562;-74
2021/06/04 08:47:40;;;;;;;4.00;2.20;;;28.60;99.90;;;28.59;55.29;94946.78;5084886;28;20197;-73
2021/06/04 08:50:22;;;;;;;3.63;2.00;;;28.60;99.90;;;29.11;55.01;95031.94;5067924;28;20179;-72
2021/06/04 08:53:25;;;;;;;2.30;2.10;;;29.00;99.90;;;30.35;54.92;95007.34;5079793;28;20186;-74
2021/06/04 08:56:02;;;;;;;4.57;1.70;;;30.40;99.90;;;30.33;54.85;94974.03;5067223;28;20313;-72
2021/06/04 08:58:54;;;;;;;3.03;1.90;;;30.80;99.90;;;29.93;54.23;94983.47;5087794;28;20196;-73
2021/06/04 09:01:34;;;;;;;3.80;2.20;;;30.60;99.80;;;29.24;54.47;94935.09;5095259;27;20196;-73
2021/06/04 09:04:16;;;;;;;3.53;2.20;;;30.00;99.90;;;28.78;54.21;94974.97;5085318;28;20205;-73
2021/06/04 09:07:01;;;;;;;4.50;2.80;;;29.50;99.90;;;28.66;54.03;94964.19;5071761;28;20218;-74
2021/06/04 09:09:43;;;;;;;3.87;2.90;;;29.00;99.90;;;28.41;53.96;94970.91;5068467;28;20182;-75
2021/06/04 09:12:25;;;;;;;5.70;2.90;;;28.80;99.90;;;28.34;53.81;94965.28;5086969;28;20244;-74
2021/06/04 09:14:53;;;;;;;5.10;3.47;;;28.60;99.90;;;28.03;53.55;94939.53;5086842;28;20201;-73
2021/06/04 09:17:37;;;;;;;3.67;3.30;;;28.20;99.90;;;28.29;52.99;94992.81;5089313;28;20602;-75
2021/06/04 09:20:20;;;;;;;4.03;3.50;;;28.30;99.90;;;28.99;52.93;95002.00;5087219;28;20292;-74
2021/06/04 09:22:55;;;;;;;4.83;3.00;;;28.90;99.90;;;28.66;52.95;94942.34;5081951;28;20214;-75
2021/06/04 09:25:24;;;;;;;4.00;3.07;;;28.70;99.90;;;28.64;53.03;94958.22;5083444;28;20247;-74
2021/06/04 09:28:10;;;;;;;6.93;3.37;;;28.80;99.90;;;28.79;52.57;94983.97;5086170;28;20186;-70
2021/06/04 09:30:50;;;;;;;3.97;2.93;;;28.90;99.90;;;28.47;52.37;94964.81;5082951;28;20194;-72
2021/06/04 09:33:33;;;;;;;3.50;3.20;;;28.70;99.90;;;28.53;52.13;94981.75;5064136;28;20596;-74
2021/06/04 09:36:13;;;;;;;4.10;2.90;;;28.80;99.90;;;28.46;52.55;94965.19;5069476;28;20214;-74
2021/06/04 09:38:44;;;;;;;3.30;3.00;;;28.60;99.90;;;28.53;51.92;94970.84;5084582;28;20798;-77
2021/06/04 09:41:25;;;;;;;5.17;3.37;;;28.60;99.90;;;28.59;51.64;94985.78;5087209;28;20198;-77
2021/06/04 09:44:17;;;;;;;5.83;3.30;;;28.70;99.90;;;28.24;51.78;94968.53;5086068;28;20560;-78
2021/06/04 09:47:15;;;;;;;4.53;2.90;;;28.40;99.90;;;28.04;51.63;94970.28;5066972;28;20217;-76
2021/06/04 09:49:42;;;;;;;4.30;2.77;;;28.20;99.90;;;28.31;51.43;94968.69;5047571;28;20190;-77
2021/06/04 09:52:33;;;;;;;3.13;2.57;;;28.50;99.90;;;28.29;51.24;94981.91;5049865;28;20207;-76
2021/06/04 09:55:07;;;;;;;2.10;1.90;;;28.50;99.90;;;28.29;51.66;94938.25;5031103;28;20203;-73
2021/06/04 09:57:36;;;;;;;4.20;2.53;;;28.50;99.90;;;27.65;51.39;94925.63;5063755;28;20214;-75
2021/06/04 10:00:20;;;;;;;3.77;2.50;;;28.10;99.90;;;28.06;51.61;94999.94;5049265;28;20195;-75
2021/06/04 10:02:46;;;;;;;3.70;2.50;;;28.20;99.90;;;28.26;50.88;94972.47;5049313;28;20677;-72
2021/06/04 10:05:28;;;;;;;4.70;2.20;;;28.40;99.90;;;28.58;50.86;94950.66;5035065;28;20225;-72
2021/06/04 10:08:13;;;;;;;3.90;2.83;;;28.80;99.90;;;28.54;50.69;94961.47;5064932;28;20197;-73
2021/06/04 10:10:43;;;;;;;3.20;2.77;;;28.90;99.90;;;29.03;51.17;94968.19;5058957;28;20253;-72
2021/06/04 10:13:36;;;;;;;3.33;2.50;;;29.20;99.90;;;29.98;50.40;95005.03;5048794;28;20210;-71
2021/06/04 10:16:09;;;;;;;3.20;2.40;;;30.10;99.60;;;31.44;50.35;95006.47;5057040;28;20191;-78
2021/06/04 10:18:39;;;;;;;2.57;2.37;;;31.50;96.40;;;34.13;49.46;95079.91;5045168;28;20255;-79
2021/06/04 10:21:31;;;;;;;5.23;2.30;;;34.50;95.00;;;36.00;48.80;95034.06;5044969;28;20224;-78
2021/06/04 10:24:01;;;;;;;2.72;2.53;;;37.00;85.60;;;36.07;49.22;94889.72;5076969;28;20207;-78
2021/06/04 10:26:40;;;;;;;3.65;2.50;;;37.80;76.80;;;36.06;48.70;94975.69;5085465;28;20233;-77
2021/06/04 10:29:09;;;;;;;2.88;2.45;;;38.10;75.60;;;36.83;48.36;94991.91;5084888;28;20289;-75
2021/06/04 10:32:03;;;;;;;3.28;2.80;;;39.30;72.50;;;38.04;47.83;95013.78;5083802;28;20221;-78
2021/06/04 10:34:41;;;;;;;2.88;2.40;;;40.50;67.90;;;39.24;46.69;94969.72;5098972;28;20214;-78
2021/06/04 10:37:48;;;;;;;4.32;2.40;;;42.20;64.50;;;40.35;46.24;95032.00;5083179;28;20305;-79
2021/06/04 10:40:30;;;;;;;3.72;2.47;;;43.40;59.10;;;40.07;45.80;94857.47;5086134;28;20190;-76
2021/06/04 10:43:34;;;;;;;2.53;2.33;;;43.00;58.20;;;40.72;45.36;95074.56;5080736;28;20263;-76
2021/06/04 10:46:18;;;;;;;4.30;2.28;;;43.30;59.50;;;41.99;44.62;94962.09;5078188;28;20225;-77
2021/06/04 10:49:28;;;;;;;2.60;2.00;;;45.70;54.10;;;40.25;44.43;94905.13;5083748;28;20190;-74
2021/06/04 10:51:58;;;;;;;2.08;1.70;;;44.30;54.40;;;39.47;43.67;94889.22;5083222;28;20577;-76
2021/06/04 10:55:12;;;;;;;2.60;2.40;;;43.10;55.30;;;38.70;43.52;94907.97;5063836;28;20201;-77